Bangor, MI (49013)

4:59 AM EST on February 25, 2017 (GMT -0500)
Bangor | | Change Station
Active Advisory: Winter Weather Advisory

Elev 300 ft 42.29 °N, 86.06 °W | Updated 27 seconds ago

Overcast
Overcast
30.0 °F
Feels Like 21 °F
N
10.9
Wind Variable Wind from West

Today
High -- | Low -- °F
--% Chance of Precip.
Yesterday
High -- | Low -- °F
Precip. -- in
Pressure 29.57 in
Visibility 2.0 miles
Clouds Mostly Cloudy 700 ft
Overcast 1100 ft
Windchill 21 °F
Dew Point 30 °F
Humidity 99%
Rainfall 0.00 in
Snow Depth Not available.
7:25 AM 6:29 PM
Waning Crescent, 2% visible
METAR KLWA 250936Z AUTO 29012G18KT 2SM -SN BKN007 OVC011 00/M01 A2957 RMK AO2 T10051011
Pressure 29.57 in
Visibility 2.0 miles
Clouds Mostly Cloudy 700 ft
Overcast 1100 ft
Windchill 21 °F
Dew Point 30 °F
Humidity 99%
Rainfall 0.00 in
Snow Depth Not available.
7:25 AM 6:29 PM
Waning Crescent, 2% visible
METAR KLWA 250936Z AUTO 29012G18KT 2SM -SN BKN007 OVC011 00/M01 A2957 RMK AO2 T10051011

Get Your Daily Forecast Email!

Thanks for signing up!

Be on the lookout for a verification email in your inbox.

You'll start receiving the daily forecast at 8 AM.

×

10-Day Weather Forecast

Almanac

Astronomy

Feb. 25, 2017 Rise Set
Actual Time
Civil Twilight
Nautical Twilight
Astronomical Twilight
Moon
Length of Visible Light
Length of Day
Tomorrow will be .
, % of the Moon is Illuminated

Today's Extremes

State Highs State Lows

Community

WunderPhotos

Upload Photos

1,962,540 photos uploaded!

WunderBlog® & News

Nearby

Air Quality

  Air Quality AQ Index Pollutant
Not available.

Snow Depth

Station Depth Elevation

Earthquake Activity

City Distance Mag. Time & Date
Minimum magnitude displayed is 2.5.

Coastal Water Temperatures

Place Temperature

Stations

Nearby Weather Stations

Station Location Temp. Windchill Dew Point Humidity Wind Precip. Elev Updated Type
                   

Watches & Warnings

Winter Weather Advisory
Issued: 3:32 AM EST Feb. 25, 2017 – National Weather Service

... Winter Weather Advisory remains in effect until 8 PM EST this
evening...

Hazardous weather...

* occasional snow showers.

* Winds gusting to 35 mph producing near whiteout conditions,
   especially Saturday morning.

* 1 to 3 inches of snow accumulation by Saturday evening.

Impacts...

* roads becoming snow covered and slippery.

* Visibilities occasionally reduced to less than a half mile.

Precautionary/preparedness actions...

* the Michigan Department of Transportation reminds motorists
   to adjust speeds based on the conditions... and to take it
   slow in ice and snow.



Ostuno